sensor_id;sensor_type;location;lat;lon;timestamp;temperature;humidity
23885;DHT22;12123;53.088;7.392;2022-08-18T00:01:10;28.70;99.90
23885;DHT22;12123;53.088;7.392;2022-08-18T00:03:41;28.70;99.90
23885;DHT22;12123;53.088;7.392;2022-08-18T00:06:28;28.70;99.90
23885;DHT22;12123;53.088;7.392;2022-08-18T00:09:00;28.70;99.90
23885;DHT22;12123;53.088;7.392;2022-08-18T00:11:31;28.70;99.90
23885;DHT22;12123;53.088;7.392;2022-08-18T00:14:11;28.80;99.90
23885;DHT22;12123;53.088;7.392;2022-08-18T00:16:48;28.80;99.90
23885;DHT22;12123;53.088;7.392;2022-08-18T00:19:15;28.80;99.90
23885;DHT22;12123;53.088;7.392;2022-08-18T00:21:42;28.80;99.90
23885;DHT22;12123;53.088;7.392;2022-08-18T00:24:09;28.90;99.90
23885;DHT22;12123;53.088;7.392;2022-08-18T00:26:36;28.90;99.90
23885;DHT22;12123;53.088;7.392;2022-08-18T00:29:03;29.00;99.90
23885;DHT22;12123;53.088;7.392;2022-08-18T00:31:30;29.10;99.90
23885;DHT22;12123;53.088;7.392;2022-08-18T00:33:58;29.20;99.90
23885;DHT22;12123;53.088;7.392;2022-08-18T00:36:26;29.30;99.90
23885;DHT22;12123;53.088;7.392;2022-08-18T00:38:53;29.40;99.90
23885;DHT22;12123;53.088;7.392;2022-08-18T00:41:20;29.40;99.90
23885;DHT22;12123;53.088;7.392;2022-08-18T00:43:52;29.50;99.90
23885;DHT22;12123;53.088;7.392;2022-08-18T00:46:28;29.50;99.90
23885;DHT22;12123;53.088;7.392;2022-08-18T00:48:56;29.50;99.90
23885;DHT22;12123;53.088;7.392;2022-08-18T00:51:45;29.40;99.90
23885;DHT22;12123;53.088;7.392;2022-08-18T00:54:11;29.50;99.90
23885;DHT22;12123;53.088;7.392;2022-08-18T00:56:44;29.40;99.90
23885;DHT22;12123;53.088;7.392;2022-08-18T01:02:02;29.30;99.90
23885;DHT22;12123;53.088;7.392;2022-08-18T01:07:27;29.30;99.90
23885;DHT22;12123;53.088;7.392;2022-08-18T01:09:56;29.30;99.90
23885;DHT22;12123;53.088;7.392;2022-08-18T01:12:26;29.30;99.90
23885;DHT22;12123;53.088;7.392;2022-08-18T01:15:14;29.40;99.90
23885;DHT22;12123;53.088;7.392;2022-08-18T01:17:57;29.40;99.90
23885;DHT22;12123;53.088;7.392;2022-08-18T01:21:22;29.50;99.90
23885;DHT22;12123;53.088;7.392;2022-08-18T01:24:10;29.60;99.90
23885;DHT22;12123;53.088;7.392;2022-08-18T01:26:40;29.60;99.90
23885;DHT22;12123;53.088;7.392;2022-08-18T01:29:12;29.60;99.90
23885;DHT22;12123;53.088;7.392;2022-08-18T01:31:48;29.60;99.90
23885;DHT22;12123;53.088;7.392;2022-08-18T01:34:23;29.50;99.90
23885;DHT22;12123;53.088;7.392;2022-08-18T01:36:51;29.60;99.90
23885;DHT22;12123;53.088;7.392;2022-08-18T01:39:19;29.60;99.90
23885;DHT22;12123;53.088;7.392;2022-08-18T01:42:06;29.60;99.90
23885;DHT22;12123;53.088;7.392;2022-08-18T01:44:33;29.60;99.90
23885;DHT22;12123;53.088;7.392;2022-08-18T01:47:00;29.70;99.90
23885;DHT22;12123;53.088;7.392;2022-08-18T01:49:26;29.80;99.90
23885;DHT22;12123;53.088;7.392;2022-08-18T01:51:56;29.90;99.90
23885;DHT22;12123;53.088;7.392;2022-08-18T01:54:23;30.00;99.90
23885;DHT22;12123;53.088;7.392;2022-08-18T01:56:56;30.10;99.90
23885;DHT22;12123;53.088;7.392;2022-08-18T01:59:23;30.00;99.90
23885;DHT22;12123;53.088;7.392;2022-08-18T02:01:50;30.30;99.90
23885;DHT22;12123;53.088;7.392;2022-08-18T02:04:25;30.40;99.90
23885;DHT22;12123;53.088;7.392;2022-08-18T02:07:06;30.70;99.90
23885;DHT22;12123;53.088;7.392;2022-08-18T02:09:34;30.90;99.90
23885;DHT22;12123;53.088;7.392;2022-08-18T02:12:04;31.10;99.90
23885;DHT22;12123;53.088;7.392;2022-08-18T02:14:32;31.30;99.90
23885;DHT22;12123;53.088;7.392;2022-08-18T02:17:01;31.40;99.90
23885;DHT22;12123;53.088;7.392;2022-08-18T02:19:36;31.50;99.90
23885;DHT22;12123;53.088;7.392;2022-08-18T02:22:05;31.50;99.90
23885;DHT22;12123;53.088;7.392;2022-08-18T02:24:32;31.70;99.90
23885;DHT22;12123;53.088;7.392;2022-08-18T02:26:59;31.70;99.90
23885;DHT22;12123;53.088;7.392;2022-08-18T02:29:26;31.80;99.90
23885;DHT22;12123;53.088;7.392;2022-08-18T02:31:53;31.80;99.90
23885;DHT22;12123;53.088;7.392;2022-08-18T02:34:20;31.80;99.90
23885;DHT22;12123;53.088;7.392;2022-08-18T02:36:47;31.90;99.90
23885;DHT22;12123;53.088;7.392;2022-08-18T02:39:14;32.10;99.90
23885;DHT22;12123;53.088;7.392;2022-08-18T02:41:40;32.00;99.90
23885;DHT22;12123;53.088;7.392;2022-08-18T02:44:08;32.00;99.90
23885;DHT22;12123;53.088;7.392;2022-08-18T02:46:35;32.00;99.90
23885;DHT22;12123;53.088;7.392;2022-08-18T02:49:03;32.00;99.90
23885;DHT22;12123;53.088;7.392;2022-08-18T02:51:31;31.90;99.90
23885;DHT22;12123;53.088;7.392;2022-08-18T02:53:57;32.00;99.90
23885;DHT22;12123;53.088;7.392;2022-08-18T02:56:28;32.10;99.90
23885;DHT22;12123;53.088;7.392;2022-08-18T02:59:15;32.20;99.90
23885;DHT22;12123;53.088;7.392;2022-08-18T03:01:45;32.00;99.90
23885;DHT22;12123;53.088;7.392;2022-08-18T03:04:15;32.30;99.90
23885;DHT22;12123;53.088;7.392;2022-08-18T03:06:43;32.30;99.90
23885;DHT22;12123;53.088;7.392;2022-08-18T03:09:13;32.30;99.90
23885;DHT22;12123;53.088;7.392;2022-08-18T03:11:40;32.40;99.90
23885;DHT22;12123;53.088;7.392;2022-08-18T03:14:10;32.30;99.90
23885;DHT22;12123;53.088;7.392;2022-08-18T03:16:42;32.40;99.90
23885;DHT22;12123;53.088;7.392;2022-08-18T03:19:24;32.50;99.90
23885;DHT22;12123;53.088;7.392;2022-08-18T03:21:53;32.50;99.90
23885;DHT22;12123;53.088;7.392;2022-08-18T03:24:26;32.60;99.90
23885;DHT22;12123;53.088;7.392;2022-08-18T03:26:54;32.70;99.90
23885;DHT22;12123;53.088;7.392;2022-08-18T03:29:23;32.70;99.90
23885;DHT22;12123;53.088;7.392;2022-08-18T03:31:57;32.70;99.90
23885;DHT22;12123;53.088;7.392;2022-08-18T03:34:24;32.90;99.90
23885;DHT22;12123;53.088;7.392;2022-08-18T03:36:51;32.90;99.90
23885;DHT22;12123;53.088;7.392;2022-08-18T03:39:19;33.00;99.90
23885;DHT22;12123;53.088;7.392;2022-08-18T03:41:51;33.00;99.90
23885;DHT22;12123;53.088;7.392;2022-08-18T03:44:30;33.10;99.90
23885;DHT22;12123;53.088;7.392;2022-08-18T03:46:58;33.10;99.90
23885;DHT22;12123;53.088;7.392;2022-08-18T03:49:29;33.10;99.90
23885;DHT22;12123;53.088;7.392;2022-08-18T03:51:57;33.20;99.90
23885;DHT22;12123;53.088;7.392;2022-08-18T03:54:30;33.30;99.90
23885;DHT22;12123;53.088;7.392;2022-08-18T03:56:58;33.30;99.90
23885;DHT22;12123;53.088;7.392;2022-08-18T03:59:26;33.30;99.90
23885;DHT22;12123;53.088;7.392;2022-08-18T04:01:54;33.50;99.90
23885;DHT22;12123;53.088;7.392;2022-08-18T04:04:24;33.50;99.90
23885;DHT22;12123;53.088;7.392;2022-08-18T04:07:05;33.60;99.90
23885;DHT22;12123;53.088;7.392;2022-08-18T04:09:34;33.60;99.90
23885;DHT22;12123;53.088;7.392;2022-08-18T04:12:08;33.80;99.90
23885;DHT22;12123;53.088;7.392;2022-08-18T04:14:44;33.90;99.90
23885;DHT22;12123;53.088;7.392;2022-08-18T04:17:13;34.00;99.90
23885;DHT22;12123;53.088;7.392;2022-08-18T04:19:40;34.10;99.90
23885;DHT22;12123;53.088;7.392;2022-08-18T04:22:07;34.10;99.90
23885;DHT22;12123;53.088;7.392;2022-08-18T04:24:34;34.20;99.90
23885;DHT22;12123;53.088;7.392;2022-08-18T04:27:02;34.20;99.90
23885;DHT22;12123;53.088;7.392;2022-08-18T04:29:30;34.30;99.90
23885;DHT22;12123;53.088;7.392;2022-08-18T04:32:00;34.30;99.90
23885;DHT22;12123;53.088;7.392;2022-08-18T04:34:30;34.30;99.90
23885;DHT22;12123;53.088;7.392;2022-08-18T04:36:58;34.30;99.90
23885;DHT22;12123;53.088;7.392;2022-08-18T04:39:25;34.30;99.90
23885;DHT22;12123;53.088;7.392;2022-08-18T04:41:53;34.30;99.90
23885;DHT22;12123;53.088;7.392;2022-08-18T04:44:20;34.40;99.90
23885;DHT22;12123;53.088;7.392;2022-08-18T04:46:52;34.40;99.90
23885;DHT22;12123;53.088;7.392;2022-08-18T04:49:23;34.50;99.90
23885;DHT22;12123;53.088;7.392;2022-08-18T04:51:53;34.60;99.90
23885;DHT22;12123;53.088;7.392;2022-08-18T04:54:58;34.60;99.90
23885;DHT22;12123;53.088;7.392;2022-08-18T04:57:27;34.70;99.90
23885;DHT22;12123;53.088;7.392;2022-08-18T04:59:59;34.80;99.90
23885;DHT22;12123;53.088;7.392;2022-08-18T05:02:26;34.70;99.90
23885;DHT22;12123;53.088;7.392;2022-08-18T05:04:53;34.90;99.90
23885;DHT22;12123;53.088;7.392;2022-08-18T05:07:20;34.90;99.90
23885;DHT22;12123;53.088;7.392;2022-08-18T05:09:53;35.00;99.90
23885;DHT22;12123;53.088;7.392;2022-08-18T05:12:21;35.00;99.90
23885;DHT22;12123;53.088;7.392;2022-08-18T05:14:52;35.10;99.90
23885;DHT22;12123;53.088;7.392;2022-08-18T05:17:19;35.10;99.90
23885;DHT22;12123;53.088;7.392;2022-08-18T05:19:46;35.10;99.90
23885;DHT22;12123;53.088;7.392;2022-08-18T05:22:15;35.20;99.90
23885;DHT22;12123;53.088;7.392;2022-08-18T05:24:56;35.20;99.90
23885;DHT22;12123;53.088;7.392;2022-08-18T05:27:23;35.20;99.90
23885;DHT22;12123;53.088;7.392;2022-08-18T05:29:50;35.20;99.90
23885;DHT22;12123;53.088;7.392;2022-08-18T05:32:17;35.30;99.90
23885;DHT22;12123;53.088;7.392;2022-08-18T05:35:08;35.30;99.90
23885;DHT22;12123;53.088;7.392;2022-08-18T05:37:55;35.40;99.90
23885;DHT22;12123;53.088;7.392;2022-08-18T05:40:24;35.50;99.90
23885;DHT22;12123;53.088;7.392;2022-08-18T05:42:53;35.60;99.90
23885;DHT22;12123;53.088;7.392;2022-08-18T05:45:23;35.80;99.90
23885;DHT22;12123;53.088;7.392;2022-08-18T05:47:50;35.80;99.90
23885;DHT22;12123;53.088;7.392;2022-08-18T05:50:19;36.00;99.90
23885;DHT22;12123;53.088;7.392;2022-08-18T05:52:57;35.80;99.90
23885;DHT22;12123;53.088;7.392;2022-08-18T05:55:54;36.00;99.90
23885;DHT22;12123;53.088;7.392;2022-08-18T05:58:44;35.80;99.90
23885;DHT22;12123;53.088;7.392;2022-08-18T06:01:17;35.90;99.90
23885;DHT22;12123;53.088;7.392;2022-08-18T06:03:56;35.70;99.90
23885;DHT22;12123;53.088;7.392;2022-08-18T06:06:27;35.60;99.90
23885;DHT22;12123;53.088;7.392;2022-08-18T06:09:12;35.60;99.90
23885;DHT22;12123;53.088;7.392;2022-08-18T06:11:43;35.50;99.90
23885;DHT22;12123;53.088;7.392;2022-08-18T06:14:10;35.60;99.90
23885;DHT22;12123;53.088;7.392;2022-08-18T06:16:53;35.70;99.90
23885;DHT22;12123;53.088;7.392;2022-08-18T06:19:40;35.70;99.90
23885;DHT22;12123;53.088;7.392;2022-08-18T06:28:05;35.40;99.90
23885;DHT22;12123;53.088;7.392;2022-08-18T06:30:46;35.40;99.90
23885;DHT22;12123;53.088;7.392;2022-08-18T06:33:19;35.40;99.90
23885;DHT22;12123;53.088;7.392;2022-08-18T06:35:58;35.40;99.90
23885;DHT22;12123;53.088;7.392;2022-08-18T06:38:38;35.50;99.90
23885;DHT22;12123;53.088;7.392;2022-08-18T06:41:16;35.40;99.90
23885;DHT22;12123;53.088;7.392;2022-08-18T06:46:40;35.20;99.90
23885;DHT22;12123;53.088;7.392;2022-08-18T06:49:11;35.00;99.90
23885;DHT22;12123;53.088;7.392;2022-08-18T06:51:40;34.80;99.90
23885;DHT22;12123;53.088;7.392;2022-08-18T06:54:25;34.50;99.90
23885;DHT22;12123;53.088;7.392;2022-08-18T06:56:55;34.10;99.90
23885;DHT22;12123;53.088;7.392;2022-08-18T06:59:29;34.10;99.90
23885;DHT22;12123;53.088;7.392;2022-08-18T07:02:14;33.80;99.90
23885;DHT22;12123;53.088;7.392;2022-08-18T07:05:05;33.80;99.90
23885;DHT22;12123;53.088;7.392;2022-08-18T07:07:39;33.50;99.90
23885;DHT22;12123;53.088;7.392;2022-08-18T07:12:43;33.10;99.90
23885;DHT22;12123;53.088;7.392;2022-08-18T07:15:11;33.10;99.90
23885;DHT22;12123;53.088;7.392;2022-08-18T07:17:38;33.10;99.90
23885;DHT22;12123;53.088;7.392;2022-08-18T07:20:20;32.80;99.90
23885;DHT22;12123;53.088;7.392;2022-08-18T07:23:02;32.60;99.90
23885;DHT22;12123;53.088;7.392;2022-08-18T07:25:40;31.40;99.90
23885;DHT22;12123;53.088;7.392;2022-08-18T07:28:36;30.80;99.90
23885;DHT22;12123;53.088;7.392;2022-08-18T07:31:35;30.80;99.90
23885;DHT22;12123;53.088;7.392;2022-08-18T07:34:14;30.30;99.90
23885;DHT22;12123;53.088;7.392;2022-08-18T07:36:53;30.30;99.90
23885;DHT22;12123;53.088;7.392;2022-08-18T07:39:33;29.80;99.90
23885;DHT22;12123;53.088;7.392;2022-08-18T07:42:22;29.60;99.90
23885;DHT22;12123;53.088;7.392;2022-08-18T07:45:40;29.00;99.90
23885;DHT22;12123;53.088;7.392;2022-08-18T07:48:20;28.60;99.90
23885;DHT22;12123;53.088;7.392;2022-08-18T07:51:22;27.80;99.90
23885;DHT22;12123;53.088;7.392;2022-08-18T07:53:53;27.20;99.90
23885;DHT22;12123;53.088;7.392;2022-08-18T07:59:22;27.10;99.90
23885;DHT22;12123;53.088;7.392;2022-08-18T08:01:54;27.30;99.90
23885;DHT22;12123;53.088;7.392;2022-08-18T08:04:53;26.80;99.90
23885;DHT22;12123;53.088;7.392;2022-08-18T08:07:54;26.20;99.90
23885;DHT22;12123;53.088;7.392;2022-08-18T08:10:29;26.60;99.90
23885;DHT22;12123;53.088;7.392;2022-08-18T08:23:00;25.30;99.90
23885;DHT22;12123;53.088;7.392;2022-08-18T08:36:39;24.70;99.90
23885;DHT22;12123;53.088;7.392;2022-08-18T08:39:26;24.00;99.90
23885;DHT22;12123;53.088;7.392;2022-08-18T08:45:08;24.40;99.90
23885;DHT22;12123;53.088;7.392;2022-08-18T08:47:40;24.10;99.90
23885;DHT22;12123;53.088;7.392;2022-08-18T08:50:15;23.70;99.90
23885;DHT22;12123;53.088;7.392;2022-08-18T08:52:45;24.50;99.90
23885;DHT22;12123;53.088;7.392;2022-08-18T08:57:59;23.80;99.90
23885;DHT22;12123;53.088;7.392;2022-08-18T09:00:27;24.00;99.90
23885;DHT22;12123;53.088;7.392;2022-08-18T09:06:06;24.30;99.90
23885;DHT22;12123;53.088;7.392;2022-08-18T09:08:51;24.50;99.90
23885;DHT22;12123;53.088;7.392;2022-08-18T09:12:43;24.20;99.90
23885;DHT22;12123;53.088;7.392;2022-08-18T09:17:44;24.50;99.90
23885;DHT22;12123;53.088;7.392;2022-08-18T09:28:08;23.80;99.90
23885;DHT22;12123;53.088;7.392;2022-08-18T09:38:59;24.20;99.90
23885;DHT22;12123;53.088;7.392;2022-08-18T09:42:00;23.30;99.90
23885;DHT22;12123;53.088;7.392;2022-08-18T09:52:56;23.60;99.90
23885;DHT22;12123;53.088;7.392;2022-08-18T09:58:12;24.60;99.90
23885;DHT22;12123;53.088;7.392;2022-08-18T10:00:42;24.60;99.90
23885;DHT22;12123;53.088;7.392;2022-08-18T10:03:13;24.50;99.90
23885;DHT22;12123;53.088;7.392;2022-08-18T10:05:59;24.20;99.90
23885;DHT22;12123;53.088;7.392;2022-08-18T10:08:54;23.40;99.90
23885;DHT22;12123;53.088;7.392;2022-08-18T10:11:44;23.90;99.90
23885;DHT22;12123;53.088;7.392;2022-08-18T10:22:45;24.10;99.90
23885;DHT22;12123;53.088;7.392;2022-08-18T10:25:31;23.40;99.90
23885;DHT22;12123;53.088;7.392;2022-08-18T10:27:58;23.40;99.90
23885;DHT22;12123;53.088;7.392;2022-08-18T10:34:13;23.30;99.90
23885;DHT22;12123;53.088;7.392;2022-08-18T10:39:22;23.40;99.90
23885;DHT22;12123;53.088;7.392;2022-08-18T10:44:24;23.40;99.90
23885;DHT22;12123;53.088;7.392;2022-08-18T10:46:57;23.30;99.90
23885;DHT22;12123;53.088;7.392;2022-08-18T10:49:27;23.50;99.90
23885;DHT22;12123;53.088;7.392;2022-08-18T10:55:16;23.10;99.90
23885;DHT22;12123;53.088;7.392;2022-08-18T11:01:27;23.20;99.90
23885;DHT22;12123;53.088;7.392;2022-08-18T11:06:48;23.30;99.90
23885;DHT22;12123;53.088;7.392;2022-08-18T11:09:27;23.30;99.90
23885;DHT22;12123;53.088;7.392;2022-08-18T11:11:57;23.10;99.90
23885;DHT22;12123;53.088;7.392;2022-08-18T11:14:49;23.10;99.90
23885;DHT22;12123;53.088;7.392;2022-08-18T11:18:00;23.50;99.90
23885;DHT22;12123;53.088;7.392;2022-08-18T11:20:30;23.50;99.90
23885;DHT22;12123;53.088;7.392;2022-08-18T11:23:01;23.80;99.90
23885;DHT22;12123;53.088;7.392;2022-08-18T11:25:35;23.80;99.90
23885;DHT22;12123;53.088;7.392;2022-08-18T11:28:19;23.70;99.90
23885;DHT22;12123;53.088;7.392;2022-08-18T11:30:55;23.90;99.90
23885;DHT22;12123;53.088;7.392;2022-08-18T11:33:23;24.00;99.90
23885;DHT22;12123;53.088;7.392;2022-08-18T11:35:59;24.10;99.90
23885;DHT22;12123;53.088;7.392;2022-08-18T11:38:27;23.80;99.90
23885;DHT22;12123;53.088;7.392;2022-08-18T11:41:18;23.10;99.90
23885;DHT22;12123;53.088;7.392;2022-08-18T11:43:46;23.00;99.90
23885;DHT22;12123;53.088;7.392;2022-08-18T11:48:55;23.80;99.90
23885;DHT22;12123;53.088;7.392;2022-08-18T11:51:28;24.00;99.90
23885;DHT22;12123;53.088;7.392;2022-08-18T11:56:40;23.80;99.90
23885;DHT22;12123;53.088;7.392;2022-08-18T12:02:16;23.20;99.90
23885;DHT22;12123;53.088;7.392;2022-08-18T12:04:47;23.70;99.90
23885;DHT22;12123;53.088;7.392;2022-08-18T12:07:35;23.60;99.90
23885;DHT22;12123;53.088;7.392;2022-08-18T12:12:47;24.70;99.90
23885;DHT22;12123;53.088;7.392;2022-08-18T12:17:51;25.30;99.90
23885;DHT22;12123;53.088;7.392;2022-08-18T12:20:38;24.50;99.90
23885;DHT22;12123;53.088;7.392;2022-08-18T12:23:05;24.20;99.90
23885;DHT22;12123;53.088;7.392;2022-08-18T12:25:31;24.10;99.90
23885;DHT22;12123;53.088;7.392;2022-08-18T12:27:58;25.10;99.90
23885;DHT22;12123;53.088;7.392;2022-08-18T12:30:25;24.70;99.90
23885;DHT22;12123;53.088;7.392;2022-08-18T12:32:52;24.50;99.90
23885;DHT22;12123;53.088;7.392;2022-08-18T12:35:33;23.90;99.90
23885;DHT22;12123;53.088;7.392;2022-08-18T12:38:00;25.30;99.90
23885;DHT22;12123;53.088;7.392;2022-08-18T12:40:39;25.50;99.90
23885;DHT22;12123;53.088;7.392;2022-08-18T12:43:06;25.90;99.90
23885;DHT22;12123;53.088;7.392;2022-08-18T12:45:33;26.20;99.90
23885;DHT22;12123;53.088;7.392;2022-08-18T12:48:03;26.00;99.90
23885;DHT22;12123;53.088;7.392;2022-08-18T12:50:33;25.40;99.90
23885;DHT22;12123;53.088;7.392;2022-08-18T12:53:20;24.80;99.90
23885;DHT22;12123;53.088;7.392;2022-08-18T12:56:06;24.40;99.90
23885;DHT22;12123;53.088;7.392;2022-08-18T12:58:37;24.70;99.90
23885;DHT22;12123;53.088;7.392;2022-08-18T13:01:06;25.00;99.90
23885;DHT22;12123;53.088;7.392;2022-08-18T13:03:33;24.60;99.90
23885;DHT22;12123;53.088;7.392;2022-08-18T13:06:02;23.60;99.90
23885;DHT22;12123;53.088;7.392;2022-08-18T13:08:31;23.70;99.90
23885;DHT22;12123;53.088;7.392;2022-08-18T13:11:13;23.30;99.90
23885;DHT22;12123;53.088;7.392;2022-08-18T13:13:50;24.00;99.90
23885;DHT22;12123;53.088;7.392;2022-08-18T13:16:24;23.80;99.90
23885;DHT22;12123;53.088;7.392;2022-08-18T13:18:56;23.40;99.90
23885;DHT22;12123;53.088;7.392;2022-08-18T13:21:25;23.60;99.90
23885;DHT22;12123;53.088;7.392;2022-08-18T13:24:04;23.20;99.90
23885;DHT22;12123;53.088;7.392;2022-08-18T13:26:37;23.00;99.90
23885;DHT22;12123;53.088;7.392;2022-08-18T13:29:07;23.00;99.90
23885;DHT22;12123;53.088;7.392;2022-08-18T13:31:36;23.20;99.90
23885;DHT22;12123;53.088;7.392;2022-08-18T13:34:04;23.40;99.90
23885;DHT22;12123;53.088;7.392;2022-08-18T13:36:44;23.30;99.90
23885;DHT22;12123;53.088;7.392;2022-08-18T13:39:21;23.30;99.90
23885;DHT22;12123;53.088;7.392;2022-08-18T13:41:51;23.70;99.90
23885;DHT22;12123;53.088;7.392;2022-08-18T13:44:21;23.50;99.90
23885;DHT22;12123;53.088;7.392;2022-08-18T13:46:51;22.90;99.90
23885;DHT22;12123;53.088;7.392;2022-08-18T13:49:23;23.00;99.90
23885;DHT22;12123;53.088;7.392;2022-08-18T13:51:56;23.20;99.90
23885;DHT22;12123;53.088;7.392;2022-08-18T13:54:29;23.10;99.90
23885;DHT22;12123;53.088;7.392;2022-08-18T13:57:02;23.10;99.90
23885;DHT22;12123;53.088;7.392;2022-08-18T13:59:29;23.10;99.90
23885;DHT22;12123;53.088;7.392;2022-08-18T14:01:58;22.90;99.90
23885;DHT22;12123;53.088;7.392;2022-08-18T14:04:26;22.90;99.90
23885;DHT22;12123;53.088;7.392;2022-08-18T14:06:54;23.10;99.90
23885;DHT22;12123;53.088;7.392;2022-08-18T14:09:25;23.20;99.90
23885;DHT22;12123;53.088;7.392;2022-08-18T14:12:04;23.10;99.90
23885;DHT22;12123;53.088;7.392;2022-08-18T14:14:33;23.40;99.90
23885;DHT22;12123;53.088;7.392;2022-08-18T14:17:01;23.30;99.90
23885;DHT22;12123;53.088;7.392;2022-08-18T14:19:28;23.50;99.90
23885;DHT22;12123;53.088;7.392;2022-08-18T14:22:14;23.90;99.90
23885;DHT22;12123;53.088;7.392;2022-08-18T14:25:00;24.40;99.90
23885;DHT22;12123;53.088;7.392;2022-08-18T14:27:48;24.30;99.90
23885;DHT22;12123;53.088;7.392;2022-08-18T14:30:22;24.40;99.90
23885;DHT22;12123;53.088;7.392;2022-08-18T14:32:49;24.30;99.90
23885;DHT22;12123;53.088;7.392;2022-08-18T14:35:19;24.50;99.90
23885;DHT22;12123;53.088;7.392;2022-08-18T14:37:59;24.50;99.90
23885;DHT22;12123;53.088;7.392;2022-08-18T14:40:29;25.50;99.90
23885;DHT22;12123;53.088;7.392;2022-08-18T14:42:57;26.30;99.90
23885;DHT22;12123;53.088;7.392;2022-08-18T14:45:25;27.20;1.00
23885;DHT22;12123;53.088;7.392;2022-08-18T14:48:01;27.10;99.90
23885;DHT22;12123;53.088;7.392;2022-08-18T14:50:33;27.00;63.10
23885;DHT22;12123;53.088;7.392;2022-08-18T14:53:00;26.50;99.90
23885;DHT22;12123;53.088;7.392;2022-08-18T14:55:27;25.60;99.90
23885;DHT22;12123;53.088;7.392;2022-08-18T14:57:56;25.90;99.90
23885;DHT22;12123;53.088;7.392;2022-08-18T15:00:26;26.70;99.90
23885;DHT22;12123;53.088;7.392;2022-08-18T15:02:53;26.00;99.90
23885;DHT22;12123;53.088;7.392;2022-08-18T15:05:21;26.10;99.90
23885;DHT22;12123;53.088;7.392;2022-08-18T15:07:51;25.60;99.90
23885;DHT22;12123;53.088;7.392;2022-08-18T15:10:18;25.70;99.90
23885;DHT22;12123;53.088;7.392;2022-08-18T15:12:53;25.30;99.90
23885;DHT22;12123;53.088;7.392;2022-08-18T15:15:20;24.80;99.90
23885;DHT22;12123;53.088;7.392;2022-08-18T15:17:48;25.00;1.00
23885;DHT22;12123;53.088;7.392;2022-08-18T15:20:20;24.40;1.00
23885;DHT22;12123;53.088;7.392;2022-08-18T15:22:59;24.40;99.90
23885;DHT22;12123;53.088;7.392;2022-08-18T15:25:53;24.40;99.90
23885;DHT22;12123;53.088;7.392;2022-08-18T15:28:23;23.90;99.90
23885;DHT22;12123;53.088;7.392;2022-08-18T15:30:52;24.40;99.90
23885;DHT22;12123;53.088;7.392;2022-08-18T15:33:38;24.90;99.90
23885;DHT22;12123;53.088;7.392;2022-08-18T15:36:07;24.70;4.60
23885;DHT22;12123;53.088;7.392;2022-08-18T15:38:36;24.50;1.00
23885;DHT22;12123;53.088;7.392;2022-08-18T15:41:03;24.60;99.90
23885;DHT22;12123;53.088;7.392;2022-08-18T15:43:34;24.40;99.90
23885;DHT22;12123;53.088;7.392;2022-08-18T15:46:12;24.00;99.90
23885;DHT22;12123;53.088;7.392;2022-08-18T15:48:39;23.60;1.00
23885;DHT22;12123;53.088;7.392;2022-08-18T15:51:06;23.30;99.90
23885;DHT22;12123;53.088;7.392;2022-08-18T15:53:38;23.50;78.00
23885;DHT22;12123;53.088;7.392;2022-08-18T15:56:20;23.60;65.00
23885;DHT22;12123;53.088;7.392;2022-08-18T15:58:51;23.50;49.50
23885;DHT22;12123;53.088;7.392;2022-08-18T16:01:19;24.00;99.90
23885;DHT22;12123;53.088;7.392;2022-08-18T16:03:58;24.10;99.90
23885;DHT22;12123;53.088;7.392;2022-08-18T16:06:27;24.20;6.30
23885;DHT22;12123;53.088;7.392;2022-08-18T16:08:58;24.10;99.90
23885;DHT22;12123;53.088;7.392;2022-08-18T16:11:25;24.50;99.90
23885;DHT22;12123;53.088;7.392;2022-08-18T16:13:55;24.50;1.00
23885;DHT22;12123;53.088;7.392;2022-08-18T16:16:25;24.40;99.90
23885;DHT22;12123;53.088;7.392;2022-08-18T16:19:04;24.10;99.90
23885;DHT22;12123;53.088;7.392;2022-08-18T16:21:31;24.00;99.90
23885;DHT22;12123;53.088;7.392;2022-08-18T16:23:58;24.00;99.90
23885;DHT22;12123;53.088;7.392;2022-08-18T16:26:25;24.00;1.00
23885;DHT22;12123;53.088;7.392;2022-08-18T16:28:53;23.80;63.10
23885;DHT22;12123;53.088;7.392;2022-08-18T16:31:21;23.60;39.70
23885;DHT22;12123;53.088;7.392;2022-08-18T16:33:55;23.40;75.40
23885;DHT22;12123;53.088;7.392;2022-08-18T16:36:24;23.40;99.90
23885;DHT22;12123;53.088;7.392;2022-08-18T16:38:52;23.50;99.90
23885;DHT22;12123;53.088;7.392;2022-08-18T16:41:24;23.40;99.90
23885;DHT22;12123;53.088;7.392;2022-08-18T16:43:52;23.20;99.90
23885;DHT22;12123;53.088;7.392;2022-08-18T16:46:21;23.10;99.90
23885;DHT22;12123;53.088;7.392;2022-08-18T16:48:51;22.80;99.90
23885;DHT22;12123;53.088;7.392;2022-08-18T16:51:20;22.80;99.90
23885;DHT22;12123;53.088;7.392;2022-08-18T16:53:48;22.80;1.00
23885;DHT22;12123;53.088;7.392;2022-08-18T16:56:21;22.70;99.90
23885;DHT22;12123;53.088;7.392;2022-08-18T16:58:48;22.60;99.90
23885;DHT22;12123;53.088;7.392;2022-08-18T17:01:34;22.20;99.90
23885;DHT22;12123;53.088;7.392;2022-08-18T17:04:24;22.20;99.90
23885;DHT22;12123;53.088;7.392;2022-08-18T17:06:51;22.40;99.90
23885;DHT22;12123;53.088;7.392;2022-08-18T17:09:19;22.50;99.90
23885;DHT22;12123;53.088;7.392;2022-08-18T17:11:46;22.40;99.90
23885;DHT22;12123;53.088;7.392;2022-08-18T17:14:19;22.30;99.90
23885;DHT22;12123;53.088;7.392;2022-08-18T17:16:48;22.10;1.00
23885;DHT22;12123;53.088;7.392;2022-08-18T17:19:23;22.20;99.90
23885;DHT22;12123;53.088;7.392;2022-08-18T17:21:51;22.10;99.90
23885;DHT22;12123;53.088;7.392;2022-08-18T17:24:18;22.10;1.00
23885;DHT22;12123;53.088;7.392;2022-08-18T17:27:08;22.00;99.90
23885;DHT22;12123;53.088;7.392;2022-08-18T17:30:15;21.90;99.90
23885;DHT22;12123;53.088;7.392;2022-08-18T17:33:11;21.90;99.90
23885;DHT22;12123;53.088;7.392;2022-08-18T17:35:41;21.90;49.40
23885;DHT22;12123;53.088;7.392;2022-08-18T17:38:34;21.80;99.90
23885;DHT22;12123;53.088;7.392;2022-08-18T17:41:05;21.80;67.40
23885;DHT22;12123;53.088;7.392;2022-08-18T17:43:36;21.80;99.90
23885;DHT22;12123;53.088;7.392;2022-08-18T17:46:16;21.70;83.80
23885;DHT22;12123;53.088;7.392;2022-08-18T17:49:05;21.70;1.00
23885;DHT22;12123;53.088;7.392;2022-08-18T17:51:44;21.60;99.90
23885;DHT22;12123;53.088;7.392;2022-08-18T17:54:32;21.60;1.00
23885;DHT22;12123;53.088;7.392;2022-08-18T17:57:06;21.60;99.90
23885;DHT22;12123;53.088;7.392;2022-08-18T17:59:42;21.60;99.90
23885;DHT22;12123;53.088;7.392;2022-08-18T18:02:20;21.60;99.90
23885;DHT22;12123;53.088;7.392;2022-08-18T18:05:05;21.50;99.90
23885;DHT22;12123;53.088;7.392;2022-08-18T18:07:39;21.40;99.90
23885;DHT22;12123;53.088;7.392;2022-08-18T18:10:23;21.40;99.90
23885;DHT22;12123;53.088;7.392;2022-08-18T18:13:13;21.40;99.90
23885;DHT22;12123;53.088;7.392;2022-08-18T18:15:48;21.30;99.90